sensor_id;sensor_type;location;lat;lon;timestamp;pressure;altitude;pressure_sealevel;temperature;humidity
53089;BME280;38968;47.696;17.540;2023-01-29T00:02:37;10124790.0;;;3.57;58.86035
53089;BME280;38968;47.696;17.540;2023-01-29T00:07:38;10125160.0;;;3.38;59.73633
53089;BME280;38968;47.696;17.540;2023-01-29T00:12:37;10124790.0;;;3.32;59.60254
53089;BME280;38968;47.696;17.540;2023-01-29T00:17:38;10125200.0;;;3;60.97656
53089;BME280;38968;47.696;17.540;2023-01-29T00:22:37;10125310.0;;;3.32;60.51563
53089;BME280;38968;47.696;17.540;2023-01-29T00:27:38;10125130.0;;;3.55;59.92773
53089;BME280;38968;47.696;17.540;2023-01-29T00:32:38;10125030.0;;;3.51;60.25
53089;BME280;38968;47.696;17.540;2023-01-29T00:37:38;10125780.0;;;3.69;59.84766
53089;BME280;38968;47.696;17.540;2023-01-29T00:42:37;10125920.0;;;3.32;61.40625
53089;BME280;38968;47.696;17.540;2023-01-29T00:47:38;10126100.0;;;3.38;61.63965
53089;BME280;38968;47.696;17.540;2023-01-29T00:52:38;10126700.0;;;3.34;61.78027
53089;BME280;38968;47.696;17.540;2023-01-29T00:57:38;10127320.0;;;3.66;61.18359
53089;BME280;38968;47.696;17.540;2023-01-29T01:02:38;10127560.0;;;3.33;62.07227
53089;BME280;38968;47.696;17.540;2023-01-29T01:07:38;10127850.0;;;3.7;61.52832
53089;BME280;38968;47.696;17.540;2023-01-29T01:12:37;10127990.0;;;3.61;61.79785
53089;BME280;38968;47.696;17.540;2023-01-29T01:17:38;10127900.0;;;3.6;61.80762
53089;BME280;38968;47.696;17.540;2023-01-29T01:22:37;10128090.0;;;3.63;62.23926
53089;BME280;38968;47.696;17.540;2023-01-29T01:27:38;10127900.0;;;3.59;61.74902
53089;BME280;38968;47.696;17.540;2023-01-29T01:32:38;10128540.0;;;3.71;61.84668
53089;BME280;38968;47.696;17.540;2023-01-29T01:37:38;10128490.0;;;3.28;62.60449
53089;BME280;38968;47.696;17.540;2023-01-29T01:42:40;10128140.0;;;3.03;63.05273
53089;BME280;38968;47.696;17.540;2023-01-29T01:47:42;10128690.0;;;3.11;63.28906
53089;BME280;38968;47.696;17.540;2023-01-29T01:52:39;10128380.0;;;3.21;62.96582
53089;BME280;38968;47.696;17.540;2023-01-29T01:57:39;10129040.0;;;3.13;62.49316
53089;BME280;38968;47.696;17.540;2023-01-29T02:02:39;10129240.0;;;3.48;61.87988
53089;BME280;38968;47.696;17.540;2023-01-29T02:07:41;10128810.0;;;2.97;62.05176
53089;BME280;38968;47.696;17.540;2023-01-29T02:12:38;10130520.0;;;3.17;61.04688
53089;BME280;38968;47.696;17.540;2023-01-29T02:17:38;10130570.0;;;3.34;60.56445
53089;BME280;38968;47.696;17.540;2023-01-29T02:23:05;10130370.0;;;3.01;60.82227
53089;BME280;38968;47.696;17.540;2023-01-29T02:32:45;10130870.0;;;3.2;60.48926
53089;BME280;38968;47.696;17.540;2023-01-29T02:37:51;10131750.0;;;3.49;59.84277
53089;BME280;38968;47.696;17.540;2023-01-29T02:42:46;10132010.0;;;3.26;60.11328
53089;BME280;38968;47.696;17.540;2023-01-29T02:47:44;10132260.0;;;2.99;60.55957
53089;BME280;38968;47.696;17.540;2023-01-29T02:52:59;10131460.0;;;2.92;60.21289
53089;BME280;38968;47.696;17.540;2023-01-29T02:57:39;10131770.0;;;2.84;60.86426
53089;BME280;38968;47.696;17.540;2023-01-29T03:02:50;10131520.0;;;2.85;60.41699
53089;BME280;38968;47.696;17.540;2023-01-29T03:07:40;10132640.0;;;3.08;60.22363
53089;BME280;38968;47.696;17.540;2023-01-29T03:12:38;10132190.0;;;3.04;60.11621
53089;BME280;38968;47.696;17.540;2023-01-29T03:17:54;10132350.0;;;2.78;60.69922
53089;BME280;38968;47.696;17.540;2023-01-29T03:22:38;10133380.0;;;3.01;60.52832
53089;BME280;38968;47.696;17.540;2023-01-29T03:32:38;10134440.0;;;2.84;60.46094
53089;BME280;38968;47.696;17.540;2023-01-29T03:37:45;10134990.0;;;2.46;60.61914
53089;BME280;38968;47.696;17.540;2023-01-29T03:47:53;10134870.0;;;3.06;58.67871
53089;BME280;38968;47.696;17.540;2023-01-29T03:52:46;10134070.0;;;2.75;58.88281
53089;BME280;38968;47.696;17.540;2023-01-29T04:02:46;10135110.0;;;3.26;57.96191
53089;BME280;38968;47.696;17.540;2023-01-29T04:07:38;10134870.0;;;2.82;59.625
53089;BME280;38968;47.696;17.540;2023-01-29T04:12:49;10135470.0;;;3.05;58.11328
53089;BME280;38968;47.696;17.540;2023-01-29T04:17:39;10134740.0;;;2.73;58.80078
53089;BME280;38968;47.696;17.540;2023-01-29T04:22:39;10134300.0;;;3.39;56.76172
53089;BME280;38968;47.696;17.540;2023-01-29T04:37:43;10132400.0;;;3.14;57.31445
53089;BME280;38968;47.696;17.540;2023-01-29T04:43:07;10132180.0;;;3;57.76758
53089;BME280;38968;47.696;17.540;2023-01-29T05:02:39;10130920.0;;;2.62;58.85449
53089;BME280;38968;47.696;17.540;2023-01-29T05:07:38;10131120.0;;;2.93;57.64746
53089;BME280;38968;47.696;17.540;2023-01-29T05:12:38;10131360.0;;;3.37;56.46484
53089;BME280;38968;47.696;17.540;2023-01-29T05:17:37;10132130.0;;;2.39;58.48535
53089;BME280;38968;47.696;17.540;2023-01-29T05:22:39;10133250.0;;;2.19;59.24414
53089;BME280;38968;47.696;17.540;2023-01-29T05:27:37;10133750.0;;;2.59;58.74805
53089;BME280;38968;47.696;17.540;2023-01-29T05:32:38;10133370.0;;;2.5;58.4209
53089;BME280;38968;47.696;17.540;2023-01-29T05:37:37;10133710.0;;;2.28;59.38086
53089;BME280;38968;47.696;17.540;2023-01-29T05:42:38;10134470.0;;;2.92;57.57715
53089;BME280;38968;47.696;17.540;2023-01-29T05:47:38;10134260.0;;;2.8;57.5957
53089;BME280;38968;47.696;17.540;2023-01-29T05:52:37;10135010.0;;;2.98;57.44043
53089;BME280;38968;47.696;17.540;2023-01-29T05:57:39;10135430.0;;;3.69;55.90918
53089;BME280;38968;47.696;17.540;2023-01-29T06:02:38;10135750.0;;;3.37;57.81836
53089;BME280;38968;47.696;17.540;2023-01-29T06:07:38;10134930.0;;;3.47;58.40723
53089;BME280;38968;47.696;17.540;2023-01-29T06:12:38;10135060.0;;;3.6;57.91699
53089;BME280;38968;47.696;17.540;2023-01-29T06:17:38;10136190.0;;;3.38;58.20215
53089;BME280;38968;47.696;17.540;2023-01-29T06:22:37;10136410.0;;;3.29;58.47266
53089;BME280;38968;47.696;17.540;2023-01-29T06:27:38;10136120.0;;;2.95;59.94727
53089;BME280;38968;47.696;17.540;2023-01-29T06:32:38;10136070.0;;;3.28;58.59668
53089;BME280;38968;47.696;17.540;2023-01-29T06:37:37;10135900.0;;;3.06;58.66699
53089;BME280;38968;47.696;17.540;2023-01-29T06:42:38;10136380.0;;;2.72;59.28418
53089;BME280;38968;47.696;17.540;2023-01-29T06:47:37;10135970.0;;;3.02;58.21094
53089;BME280;38968;47.696;17.540;2023-01-29T06:52:37;10136670.0;;;3.05;58.05664
53089;BME280;38968;47.696;17.540;2023-01-29T06:57:38;10137360.0;;;3.03;58.16602
53089;BME280;38968;47.696;17.540;2023-01-29T07:02:38;10136820.0;;;2.97;57.83105
53089;BME280;38968;47.696;17.540;2023-01-29T07:07:37;10137780.0;;;3.01;56.93555
53089;BME280;38968;47.696;17.540;2023-01-29T07:12:38;10138680.0;;;2.65;57.41895
53089;BME280;38968;47.696;17.540;2023-01-29T07:17:38;10139440.0;;;2.4;57.90039
53089;BME280;38968;47.696;17.540;2023-01-29T07:22:37;10139390.0;;;2.07;58.54199
53089;BME280;38968;47.696;17.540;2023-01-29T07:27:37;10138870.0;;;2.05;58.19141
53089;BME280;38968;47.696;17.540;2023-01-29T07:32:38;10137210.0;;;2.64;56.60547
53089;BME280;38968;47.696;17.540;2023-01-29T07:37:37;10136600.0;;;3.09;54.88379
53089;BME280;38968;47.696;17.540;2023-01-29T07:42:38;10136850.0;;;2.37;55.34277
53089;BME280;38968;47.696;17.540;2023-01-29T07:47:37;10136060.0;;;3.03;55.20215
53089;BME280;38968;47.696;17.540;2023-01-29T07:52:38;10136400.0;;;3.02;55.60645
53089;BME280;38968;47.696;17.540;2023-01-29T07:57:37;10136700.0;;;2.9;55.7041
53089;BME280;38968;47.696;17.540;2023-01-29T08:02:39;10137840.0;;;2.71;56.43457
53089;BME280;38968;47.696;17.540;2023-01-29T08:07:37;10138250.0;;;2.44;56.51172
53089;BME280;38968;47.696;17.540;2023-01-29T08:12:37;10138750.0;;;1.96;57.62891
53089;BME280;38968;47.696;17.540;2023-01-29T08:17:38;10137390.0;;;2.01;56.9502
53089;BME280;38968;47.696;17.540;2023-01-29T08:22:37;10137990.0;;;2.44;56.32031
53089;BME280;38968;47.696;17.540;2023-01-29T08:27:38;10140120.0;;;1.75;58.73438
53089;BME280;38968;47.696;17.540;2023-01-29T08:32:38;10139510.0;;;2.13;57.16895
53089;BME280;38968;47.696;17.540;2023-01-29T08:37:38;10138510.0;;;2.45;56.0625
53089;BME280;38968;47.696;17.540;2023-01-29T08:42:38;10140070.0;;;2.93;54.90918
53089;BME280;38968;47.696;17.540;2023-01-29T08:47:37;10141280.0;;;2.48;55.59277
53089;BME280;38968;47.696;17.540;2023-01-29T08:52:37;10139550.0;;;2.91;55.24414
53089;BME280;38968;47.696;17.540;2023-01-29T08:57:38;10140600.0;;;2.5;55.22461
53089;BME280;38968;47.696;17.540;2023-01-29T09:02:37;10139680.0;;;1.94;55.53418
53089;BME280;38968;47.696;17.540;2023-01-29T09:07:37;10141640.0;;;2.53;55.20605
53089;BME280;38968;47.696;17.540;2023-01-29T09:12:38;10141590.0;;;2.39;54.92969
53089;BME280;38968;47.696;17.540;2023-01-29T09:17:37;10142520.0;;;2.58;53.55664
53089;BME280;38968;47.696;17.540;2023-01-29T09:22:38;10142230.0;;;3.64;51.29395
53089;BME280;38968;47.696;17.540;2023-01-29T09:27:38;10142700.0;;;3.29;52.4707
53089;BME280;38968;47.696;17.540;2023-01-29T09:32:37;10143790.0;;;2.52;52.89551
53089;BME280;38968;47.696;17.540;2023-01-29T09:37:38;10142980.0;;;3.32;51.93359
53089;BME280;38968;47.696;17.540;2023-01-29T09:42:45;10142550.0;;;4.08;49.28613
53089;BME280;38968;47.696;17.540;2023-01-29T09:47:38;10141730.0;;;3.97;50.24707
53089;BME280;38968;47.696;17.540;2023-01-29T09:52:42;10141660.0;;;5.74;44.89355
53089;BME280;38968;47.696;17.540;2023-01-29T09:57:48;10140710.0;;;5.4;45.17676
53089;BME280;38968;47.696;17.540;2023-01-29T10:27:39;10141890.0;;;4.19;48.73242
53089;BME280;38968;47.696;17.540;2023-01-29T10:32:38;10142250.0;;;3.47;50.58398
53089;BME280;38968;47.696;17.540;2023-01-29T10:37:41;10141150.0;;;4.28;47.7793
53089;BME280;38968;47.696;17.540;2023-01-29T10:42:42;10140760.0;;;4.15;49.27246
53089;BME280;38968;47.696;17.540;2023-01-29T10:47:51;10140840.0;;;4.67;47.1875
53089;BME280;38968;47.696;17.540;2023-01-29T11:02:44;10137080.0;;;5.44;46.01172
53089;BME280;38968;47.696;17.540;2023-01-29T11:07:38;10135660.0;;;5.63;45.47363
53089;BME280;38968;47.696;17.540;2023-01-29T11:12:38;10134540.0;;;5.31;45.96289
53089;BME280;38968;47.696;17.540;2023-01-29T11:17:38;10132770.0;;;7.42;40.61035
53089;BME280;38968;47.696;17.540;2023-01-29T11:22:38;10131440.0;;;8.28;38.67285
53089;BME280;38968;47.696;17.540;2023-01-29T11:32:38;10129980.0;;;10.17;35.43066
53089;BME280;38968;47.696;17.540;2023-01-29T11:37:39;10130340.0;;;10.21;34.75391
53089;BME280;38968;47.696;17.540;2023-01-29T11:42:37;10129780.0;;;9.72;35.87793
53089;BME280;38968;47.696;17.540;2023-01-29T11:47:38;10129540.0;;;10.13;36.98438
53089;BME280;38968;47.696;17.540;2023-01-29T11:52:39;10128810.0;;;8.1;38.37109
53089;BME280;38968;47.696;17.540;2023-01-29T11:57:42;10128740.0;;;7.7;39.82324
53089;BME280;38968;47.696;17.540;2023-01-29T12:02:41;10127390.0;;;9.28;36.91016
53089;BME280;38968;47.696;17.540;2023-01-29T12:07:39;10126380.0;;;8.16;37.32031
53089;BME280;38968;47.696;17.540;2023-01-29T12:12:41;10125820.0;;;9.28;36.89941
53089;BME280;38968;47.696;17.540;2023-01-29T12:17:38;10124180.0;;;10.75;33.09863
53089;BME280;38968;47.696;17.540;2023-01-29T12:23:03;10123370.0;;;9.14;35.57617
53089;BME280;38968;47.696;17.540;2023-01-29T12:27:55;10123120.0;;;10.52;33.62402
53089;BME280;38968;47.696;17.540;2023-01-29T12:32:52;10122260.0;;;10.62;33.9668
53089;BME280;38968;47.696;17.540;2023-01-29T12:42:39;10119030.0;;;11.96;30.65234
53089;BME280;38968;47.696;17.540;2023-01-29T12:47:41;10120170.0;;;11.92;31.3916
53089;BME280;38968;47.696;17.540;2023-01-29T12:52:51;10120520.0;;;11.99;30.70117
53089;BME280;38968;47.696;17.540;2023-01-29T12:57:57;10118690.0;;;11.3;32.79395
53089;BME280;38968;47.696;17.540;2023-01-29T13:03:01;10118850.0;;;12.23;30.19531
53089;BME280;38968;47.696;17.540;2023-01-29T13:07:40;10117900.0;;;11.32;32.44727
53089;BME280;38968;47.696;17.540;2023-01-29T13:12:38;10117730.0;;;11.58;31.80664
53089;BME280;38968;47.696;17.540;2023-01-29T13:17:48;10117610.0;;;12.49;30.12109
53089;BME280;38968;47.696;17.540;2023-01-29T13:22:39;10117540.0;;;12.21;31.16895
53089;BME280;38968;47.696;17.540;2023-01-29T13:27:38;10117550.0;;;11.3;32.33008
53089;BME280;38968;47.696;17.540;2023-01-29T13:32:38;10116650.0;;;10.08;33.69434
53089;BME280;38968;47.696;17.540;2023-01-29T13:37:51;10118210.0;;;8.06;37.36914
53089;BME280;38968;47.696;17.540;2023-01-29T13:42:41;10117150.0;;;7.36;38.83105
53089;BME280;38968;47.696;17.540;2023-01-29T13:47:38;10117230.0;;;7.34;38.42871
53089;BME280;38968;47.696;17.540;2023-01-29T13:52:45;10117180.0;;;6.53;39.80762
53089;BME280;38968;47.696;17.540;2023-01-29T14:02:37;10117270.0;;;5.72;43.05957
53089;BME280;38968;47.696;17.540;2023-01-29T14:12:39;10119430.0;;;5;44.14648
53089;BME280;38968;47.696;17.540;2023-01-29T14:17:38;10119590.0;;;4.98;44.58789
53089;BME280;38968;47.696;17.540;2023-01-29T14:22:38;10120340.0;;;4.53;46.19727
53089;BME280;38968;47.696;17.540;2023-01-29T14:27:37;10120450.0;;;4.97;45.13086
53089;BME280;38968;47.696;17.540;2023-01-29T14:32:39;10120630.0;;;4.64;45.6416
53089;BME280;38968;47.696;17.540;2023-01-29T14:37:39;10120750.0;;;4.18;47.74609
53089;BME280;38968;47.696;17.540;2023-01-29T14:52:43;10119910.0;;;4.23;47.07227
53089;BME280;38968;47.696;17.540;2023-01-29T14:57:37;10120280.0;;;4.03;48.02344
53089;BME280;38968;47.696;17.540;2023-01-29T15:02:43;10119320.0;;;4.31;47.64648
53089;BME280;38968;47.696;17.540;2023-01-29T15:07:41;10120540.0;;;3.76;48.77344
53089;BME280;38968;47.696;17.540;2023-01-29T15:12:44;10120240.0;;;4.18;47.42871
53089;BME280;38968;47.696;17.540;2023-01-29T15:22:42;10120540.0;;;4.03;48.30664
53089;BME280;38968;47.696;17.540;2023-01-29T15:27:41;10121040.0;;;3.71;48.72461
53089;BME280;38968;47.696;17.540;2023-01-29T15:32:39;10119980.0;;;3.91;48.16992
53089;BME280;38968;47.696;17.540;2023-01-29T15:37:39;10120820.0;;;4.09;47.47559
53089;BME280;38968;47.696;17.540;2023-01-29T15:42:43;10121440.0;;;4.17;46.99707
53089;BME280;38968;47.696;17.540;2023-01-29T15:47:38;10121340.0;;;4.11;47.31836
53089;BME280;38968;47.696;17.540;2023-01-29T15:52:38;10122040.0;;;3.86;48.0166
53089;BME280;38968;47.696;17.540;2023-01-29T15:57:39;10121390.0;;;3.73;48.73828
53089;BME280;38968;47.696;17.540;2023-01-29T16:02:40;10122330.0;;;3.68;48.37012
53089;BME280;38968;47.696;17.540;2023-01-29T16:07:39;10121910.0;;;3.73;48.51172
53089;BME280;38968;47.696;17.540;2023-01-29T16:12:38;10121660.0;;;3.77;48.61621
53089;BME280;38968;47.696;17.540;2023-01-29T16:17:39;10121550.0;;;3.67;48.31152
53089;BME280;38968;47.696;17.540;2023-01-29T16:22:38;10122180.0;;;3.75;48.81836
53089;BME280;38968;47.696;17.540;2023-01-29T16:27:38;10122370.0;;;3.84;48.39844
53089;BME280;38968;47.696;17.540;2023-01-29T16:32:39;10123820.0;;;3.77;48.57227
53089;BME280;38968;47.696;17.540;2023-01-29T16:37:38;10123790.0;;;3.66;49.2959
53089;BME280;38968;47.696;17.540;2023-01-29T16:42:38;10124300.0;;;3.66;48.63965
53089;BME280;38968;47.696;17.540;2023-01-29T16:47:39;10124600.0;;;3.52;49.1875
53089;BME280;38968;47.696;17.540;2023-01-29T16:52:38;10124210.0;;;3.37;49.18164
53089;BME280;38968;47.696;17.540;2023-01-29T16:57:39;10124140.0;;;3.41;49.3916
53089;BME280;38968;47.696;17.540;2023-01-29T17:02:39;10124630.0;;;3.35;49.64355
53089;BME280;38968;47.696;17.540;2023-01-29T17:07:38;10123780.0;;;2.85;51.09766
53089;BME280;38968;47.696;17.540;2023-01-29T17:12:38;10122810.0;;;3.05;50.61328
53089;BME280;38968;47.696;17.540;2023-01-29T17:17:40;10123290.0;;;2.93;50.73535
53089;BME280;38968;47.696;17.540;2023-01-29T17:22:38;10122410.0;;;3.13;50.62305
53089;BME280;38968;47.696;17.540;2023-01-29T17:27:43;10121430.0;;;3.06;50.0957
53089;BME280;38968;47.696;17.540;2023-01-29T17:32:38;10122390.0;;;2.83;50.57617
53089;BME280;38968;47.696;17.540;2023-01-29T17:37:38;10123130.0;;;2.74;50.78125
53089;BME280;38968;47.696;17.540;2023-01-29T17:42:38;10123360.0;;;2.89;50.67383
53089;BME280;38968;47.696;17.540;2023-01-29T17:47:38;10122790.0;;;2.51;51.82324
53089;BME280;38968;47.696;17.540;2023-01-29T17:52:38;10121950.0;;;2.33;52.18555
53089;BME280;38968;47.696;17.540;2023-01-29T17:57:38;10121880.0;;;2.61;51.79004
53089;BME280;38968;47.696;17.540;2023-01-29T18:02:38;10121090.0;;;2.32;52.37598
53089;BME280;38968;47.696;17.540;2023-01-29T18:07:40;10121030.0;;;2.63;51.7041
53089;BME280;38968;47.696;17.540;2023-01-29T18:12:38;10119770.0;;;2.73;51.57813
53089;BME280;38968;47.696;17.540;2023-01-29T18:17:38;10119850.0;;;2.48;52.08984
53089;BME280;38968;47.696;17.540;2023-01-29T18:22:38;10118050.0;;;2.48;52
53089;BME280;38968;47.696;17.540;2023-01-29T18:27:39;10117230.0;;;2.35;51.98535
53089;BME280;38968;47.696;17.540;2023-01-29T18:32:38;10116490.0;;;2.45;51.66992
53089;BME280;38968;47.696;17.540;2023-01-29T18:37:38;10117150.0;;;2.38;51.97656
53089;BME280;38968;47.696;17.540;2023-01-29T18:42:40;10116900.0;;;2.41;51.93555
53089;BME280;38968;47.696;17.540;2023-01-29T18:47:39;10116560.0;;;2.4;51.76563
53089;BME280;38968;47.696;17.540;2023-01-29T18:52:38;10115960.0;;;2.41;51.51953
53089;BME280;38968;47.696;17.540;2023-01-29T18:57:39;10116870.0;;;2.3;51.75391
53089;BME280;38968;47.696;17.540;2023-01-29T19:02:38;10115590.0;;;2.33;51.72461
53089;BME280;38968;47.696;17.540;2023-01-29T19:07:39;10115980.0;;;2.01;52.60742
53089;BME280;38968;47.696;17.540;2023-01-29T19:12:39;10115990.0;;;1.79;53.9082
53089;BME280;38968;47.696;17.540;2023-01-29T19:17:38;10116880.0;;;2.09;53.42773
53089;BME280;38968;47.696;17.540;2023-01-29T19:22:39;10116590.0;;;2.02;53.38477
53089;BME280;38968;47.696;17.540;2023-01-29T19:27:38;10117520.0;;;2.21;52.83496
53089;BME280;38968;47.696;17.540;2023-01-29T19:32:39;10116520.0;;;2.28;52.43848
53089;BME280;38968;47.696;17.540;2023-01-29T19:37:40;10115820.0;;;2.26;52.17676
53089;BME280;38968;47.696;17.540;2023-01-29T19:42:40;10116630.0;;;2.12;52.03516
53089;BME280;38968;47.696;17.540;2023-01-29T19:47:40;10115960.0;;;2.18;51.7832
53089;BME280;38968;47.696;17.540;2023-01-29T19:52:40;10113970.0;;;2.15;51.29492
53089;BME280;38968;47.696;17.540;2023-01-29T19:57:38;10114490.0;;;2.17;50.99316
53089;BME280;38968;47.696;17.540;2023-01-29T20:02:38;10113420.0;;;2.04;51.99219
53089;BME280;38968;47.696;17.540;2023-01-29T20:07:40;10113240.0;;;1.79;52.2666
53089;BME280;38968;47.696;17.540;2023-01-29T20:12:38;10113700.0;;;1.86;52.69043
53089;BME280;38968;47.696;17.540;2023-01-29T20:17:38;10113460.0;;;1.7;52.58105
53089;BME280;38968;47.696;17.540;2023-01-29T20:22:39;10113860.0;;;1.84;52.59863
53089;BME280;38968;47.696;17.540;2023-01-29T20:27:38;10114480.0;;;1.9;52.93164
53089;BME280;38968;47.696;17.540;2023-01-29T20:32:38;10114350.0;;;2.01;52.61914
53089;BME280;38968;47.696;17.540;2023-01-29T20:37:38;10114190.0;;;2.04;51.82324
53089;BME280;38968;47.696;17.540;2023-01-29T20:42:38;10114510.0;;;1.97;52.04004
53089;BME280;38968;47.696;17.540;2023-01-29T20:47:38;10113310.0;;;1.99;52.39063
53089;BME280;38968;47.696;17.540;2023-01-29T20:52:39;10113880.0;;;2.13;51.82227
53089;BME280;38968;47.696;17.540;2023-01-29T20:57:39;10112290.0;;;2.25;51.37598
53089;BME280;38968;47.696;17.540;2023-01-29T21:02:38;10111850.0;;;1.98;51.52344
53089;BME280;38968;47.696;17.540;2023-01-29T21:07:39;10111040.0;;;1.89;52.50293
53089;BME280;38968;47.696;17.540;2023-01-29T21:12:41;10110550.0;;;1.71;52.81836
53089;BME280;38968;47.696;17.540;2023-01-29T21:17:38;10111160.0;;;1.08;53.95215
53089;BME280;38968;47.696;17.540;2023-01-29T21:22:38;10110120.0;;;1.49;53.88086
53089;BME280;38968;47.696;17.540;2023-01-29T21:27:38;10110470.0;;;1.72;53.23535
53089;BME280;38968;47.696;17.540;2023-01-29T21:32:38;10110890.0;;;1.49;53.83594
53089;BME280;38968;47.696;17.540;2023-01-29T21:37:40;10111170.0;;;1.55;54.125
53089;BME280;38968;47.696;17.540;2023-01-29T21:42:37;10111310.0;;;1.7;53.90723
53089;BME280;38968;47.696;17.540;2023-01-29T21:47:38;10112210.0;;;1.57;54.4082
53089;BME280;38968;47.696;17.540;2023-01-29T21:52:38;10112100.0;;;1.74;53.95703
53089;BME280;38968;47.696;17.540;2023-01-29T21:57:38;10112970.0;;;1.99;53.34766
53089;BME280;38968;47.696;17.540;2023-01-29T22:02:38;10111690.0;;;1.78;53.82715
53089;BME280;38968;47.696;17.540;2023-01-29T22:07:37;10111560.0;;;1.67;54.08203
53089;BME280;38968;47.696;17.540;2023-01-29T22:12:38;10111410.0;;;1.73;54.27148
53089;BME280;38968;47.696;17.540;2023-01-29T22:17:38;10110570.0;;;2.01;53.96973
53089;BME280;38968;47.696;17.540;2023-01-29T22:22:37;10110190.0;;;2.16;53.05273
53089;BME280;38968;47.696;17.540;2023-01-29T22:27:38;10109940.0;;;2.19;52.87598
53089;BME280;38968;47.696;17.540;2023-01-29T22:32:37;10108360.0;;;2.09;52.70801
53089;BME280;38968;47.696;17.540;2023-01-29T22:37:37;10106970.0;;;2.04;53.13965
53089;BME280;38968;47.696;17.540;2023-01-29T22:42:38;10106180.0;;;1.98;53.40332
53089;BME280;38968;47.696;17.540;2023-01-29T22:47:37;10106870.0;;;1.99;52.9082
53089;BME280;38968;47.696;17.540;2023-01-29T22:52:37;10106180.0;;;1.53;54.5498
53089;BME280;38968;47.696;17.540;2023-01-29T22:57:38;10106390.0;;;1.64;53.94434
53089;BME280;38968;47.696;17.540;2023-01-29T23:02:38;10105060.0;;;1.53;54.33496
53089;BME280;38968;47.696;17.540;2023-01-29T23:07:37;10103990.0;;;1.41;54.73535
53089;BME280;38968;47.696;17.540;2023-01-29T23:12:38;10103730.0;;;1.41;54.69043
53089;BME280;38968;47.696;17.540;2023-01-29T23:17:37;10103590.0;;;1.26;55.66016
53089;BME280;38968;47.696;17.540;2023-01-29T23:22:38;10102160.0;;;1.34;55.50195
53089;BME280;38968;47.696;17.540;2023-01-29T23:27:37;10101370.0;;;1.06;56.03711
53089;BME280;38968;47.696;17.540;2023-01-29T23:32:37;10100650.0;;;1.21;55.55176
53089;BME280;38968;47.696;17.540;2023-01-29T23:37:37;10099910.0;;;0.84;56.81641
53089;BME280;38968;47.696;17.540;2023-01-29T23:42:37;10100270.0;;;0.68;57.46777
53089;BME280;38968;47.696;17.540;2023-01-29T23:47:37;10099620.0;;;0.76;57.2998
53089;BME280;38968;47.696;17.540;2023-01-29T23:52:37;10098930.0;;;0.75;57.20898
53089;BME280;38968;47.696;17.540;2023-01-29T23:57:37;10098970.0;;;0.86;57.16699
